Time;durP1;ratioP1;P1;durP2;ratioP2;P2;SDS_P1;SDS_P2;PMS_P1;PMS_P2;Temp;Humidity;BMP_temperature;BMP_pressure;BME280_temperature;BME280_humidity;BME280_pressure;Samples;Min_cycle;Max_cycle;Signal;HPM_P1;HPM_P2
2021/10/04 00:01:15;;;;;;;0.00;0.00;;;;;;;10.86;96.84;101232.38;10348264;28;20080;-69
2021/10/04 00:06:16;;;;;;;0.10;0.10;;;;;;;10.82;96.76;101237.19;10343547;28;20468;-69
2021/10/04 00:11:16;;;;;;;0.10;0.10;;;;;;;10.78;96.97;101241.13;10348992;28;20022;-69
2021/10/04 00:16:16;;;;;;;0.10;0.10;;;;;;;10.76;96.80;101242.25;10349486;28;20072;-68
2021/10/04 00:21:17;;;;;;;0.10;0.10;;;;;;;10.73;96.82;101247.88;10343637;28;20040;-69
2021/10/04 00:26:17;;;;;;;0.10;0.10;;;;;;;10.70;96.97;101242.84;10352517;28;20030;-68
2021/10/04 00:31:17;;;;;;;0.10;0.10;;;;;;;10.69;97.09;101266.00;10348244;28;20478;-68
2021/10/04 00:36:18;;;;;;;0.10;0.10;;;;;;;10.64;97.31;101274.44;10343841;28;20033;-68
2021/10/04 00:41:18;;;;;;;0.10;0.10;;;;;;;10.59;97.33;101276.72;10345325;28;20029;-69
2021/10/04 00:46:19;;;;;;;0.10;0.10;;;;;;;10.53;97.58;101277.31;10348650;28;20101;-69
2021/10/04 00:51:20;;;;;;;0.10;0.10;;;;;;;10.47;97.78;101279.72;10343527;28;20046;-69
2021/10/04 00:56:22;;;;;;;0.10;0.10;;;;;;;10.42;97.39;101291.66;10349400;28;20052;-69
2021/10/04 01:01:28;;;;;;;0.10;0.10;;;;;;;10.35;97.85;101287.03;10344506;28;20053;-69
2021/10/04 01:06:29;;;;;;;0.10;0.10;;;;;;;10.29;98.03;101307.09;10352090;28;20418;-69
2021/10/04 01:11:29;;;;;;;0.10;0.10;;;;;;;10.24;98.20;101322.66;10346731;28;20073;-68
2021/10/04 01:16:30;;;;;;;0.10;0.10;;;;;;;10.22;98.35;101327.28;10404311;22;20557;-64
2021/10/04 01:21:30;;;;;;;0.03;0.03;;;;;;;10.19;98.09;101333.75;10428789;28;20026;-64
2021/10/04 01:26:31;;;;;;;0.10;0.10;;;;;;;10.16;97.97;101325.22;10485355;28;20023;-64
2021/10/04 01:31:32;;;;;;;0.03;0.03;;;;;;;10.12;97.69;101337.09;10482833;28;20477;-64
2021/10/04 01:36:32;;;;;;;0.10;0.10;;;;;;;10.07;97.91;101337.56;10482595;28;20056;-66
2021/10/04 01:41:33;;;;;;;0.00;0.00;;;;;;;10.02;97.98;101352.28;10482372;28;20013;-66
2021/10/04 01:46:34;;;;;;;0.10;0.10;;;;;;;9.97;98.47;101350.84;10482016;28;20370;-66
2021/10/04 01:51:34;;;;;;;0.10;0.10;;;;;;;9.94;98.46;101352.97;10467269;28;20112;-66
2021/10/04 01:56:35;;;;;;;0.00;0.00;;;;;;;9.93;98.56;101377.91;10496486;28;20060;-66
2021/10/04 02:01:35;;;;;;;0.10;0.10;;;;;;;9.92;99.00;101387.72;10490986;28;20020;-66
2021/10/04 02:06:35;;;;;;;0.10;0.10;;;;;;;9.92;98.71;101369.09;10491226;28;20032;-66
2021/10/04 02:11:36;;;;;;;0.10;0.10;;;;;;;9.93;98.89;101383.25;10478286;28;20025;-66
2021/10/04 02:16:36;;;;;;;0.03;0.03;;;;;;;9.92;98.58;101382.41;10465714;28;20271;-65
2021/10/04 02:21:36;;;;;;;0.10;0.10;;;;;;;9.95;99.10;101391.94;10470757;28;20020;-66
2021/10/04 02:26:37;;;;;;;0.10;0.10;;;;;;;9.98;98.78;101405.78;10489857;28;20334;-66
2021/10/04 02:31:37;;;;;;;0.10;0.10;;;;;;;10.00;98.77;101402.97;10455493;28;20031;-66
2021/10/04 02:36:38;;;;;;;0.10;0.10;;;;;;;10.03;98.82;101407.16;10482306;28;20111;-65
2021/10/04 02:41:38;;;;;;;0.10;0.10;;;;;;;10.07;98.61;101379.31;10478153;28;20032;-66
2021/10/04 02:46:38;;;;;;;0.10;0.10;;;;;;;10.10;97.83;101381.69;10471144;28;20029;-65
2021/10/04 02:51:39;;;;;;;0.10;0.10;;;;;;;10.10;98.05;101368.38;10465831;28;20190;-65
2021/10/04 02:56:39;;;;;;;0.00;0.00;;;;;;;10.12;97.82;101382.38;10470486;28;20123;-66
2021/10/04 03:01:40;;;;;;;0.00;0.00;;;;;;;10.08;97.94;101371.16;10470317;28;20025;-66
2021/10/04 03:06:40;;;;;;;0.00;0.00;;;;;;;10.08;97.43;101379.16;10475254;28;20427;-65
2021/10/04 03:11:40;;;;;;;0.10;0.10;;;;;;;10.07;97.53;101372.16;10460080;28;20016;-65
2021/10/04 03:16:41;;;;;;;0.10;0.10;;;;;;;10.06;97.48;101373.13;10493291;28;20283;-65
2021/10/04 03:21:41;;;;;;;0.00;0.00;;;;;;;10.05;97.17;101391.91;10486569;28;20031;-66
2021/10/04 03:26:42;;;;;;;0.10;0.10;;;;;;;10.05;97.32;101397.22;10481764;28;20817;-66
2021/10/04 03:31:43;;;;;;;0.00;0.00;;;;;;;10.06;97.33;101388.25;10473824;28;20127;-66
2021/10/04 03:36:44;;;;;;;0.00;0.00;;;;;;;10.07;97.55;101401.44;10483573;28;20059;-66
2021/10/04 03:41:45;;;;;;;0.10;0.10;;;;;;;10.07;97.44;101409.41;10479029;28;20017;-66
2021/10/04 03:46:46;;;;;;;0.10;0.10;;;;;;;10.07;97.89;101411.25;10474071;28;20028;-66
2021/10/04 03:51:46;;;;;;;0.10;0.10;;;;;;;10.03;97.34;101423.13;10477423;28;20525;-66
2021/10/04 03:56:46;;;;;;;0.10;0.10;;;;;;;10.01;97.79;101430.44;10479291;28;20319;-66
2021/10/04 04:01:47;;;;;;;0.10;0.10;;;;;;;9.98;97.61;101439.56;10461004;28;20029;-65
2021/10/04 04:06:47;;;;;;;0.03;0.03;;;;;;;9.95;97.54;101438.00;10483898;28;20363;-65
2021/10/04 04:11:47;;;;;;;0.10;0.10;;;;;;;9.92;97.19;101432.13;10490741;28;20734;-66
2021/10/04 04:16:48;;;;;;;0.10;0.10;;;;;;;9.89;97.13;101432.38;10477448;28;20024;-66
2021/10/04 04:21:48;;;;;;;0.10;0.10;;;;;;;9.85;97.15;101438.97;10449055;28;20040;-66
2021/10/04 04:26:50;;;;;;;0.10;0.10;;;;;;;9.83;97.57;101446.25;10448684;28;20052;-66
2021/10/04 04:31:51;;;;;;;0.10;0.10;;;;;;;9.78;97.61;101443.19;10451286;28;20025;-66
2021/10/04 04:36:51;;;;;;;0.00;0.00;;;;;;;9.77;97.47;101449.47;10449843;28;20481;-66
2021/10/04 04:41:52;;;;;;;0.10;0.10;;;;;;;9.75;97.90;101462.91;10449740;28;20032;-66
2021/10/04 04:46:52;;;;;;;0.00;0.00;;;;;;;9.75;97.96;101479.72;10449200;28;20259;-66
2021/10/04 04:51:55;;;;;;;0.00;0.00;;;;;;;9.75;97.63;101468.25;10445484;28;20025;-66
2021/10/04 04:56:55;;;;;;;0.10;0.10;;;;;;;9.75;97.76;101481.53;10450703;28;20100;-66
2021/10/04 05:01:55;;;;;;;0.10;0.10;;;;;;;9.78;98.16;101483.94;10450382;28;20104;-66
2021/10/04 05:06:57;;;;;;;0.10;0.10;;;;;;;9.81;98.34;101481.00;10450230;28;20275;-66
2021/10/04 05:11:57;;;;;;;0.10;0.10;;;;;;;9.89;98.23;101485.59;10448898;28;20033;-66
2021/10/04 05:16:57;;;;;;;0.10;0.10;;;;;;;9.95;97.68;101501.03;10450231;28;20424;-66
2021/10/04 05:21:58;;;;;;;0.10;0.10;;;;;;;9.97;97.41;101507.03;10450010;28;20021;-66
2021/10/04 05:26:58;;;;;;;0.00;0.00;;;;;;;9.98;97.25;101506.91;10450424;28;20032;-66
2021/10/04 05:31:59;;;;;;;0.10;0.10;;;;;;;10.01;97.25;101503.16;10448868;28;20074;-66
2021/10/04 05:36:59;;;;;;;0.10;0.10;;;;;;;10.03;96.85;101513.63;10450150;28;20068;-66
2021/10/04 05:41:59;;;;;;;0.00;0.00;;;;;;;10.04;97.03;101512.69;10449706;28;20025;-66
2021/10/04 05:47:00;;;;;;;0.00;0.00;;;;;;;10.04;96.93;101525.97;10449840;28;20029;-66
2021/10/04 05:52:01;;;;;;;0.10;0.10;;;;;;;10.02;96.65;101515.47;10453636;28;20039;-66
2021/10/04 05:57:01;;;;;;;0.10;0.10;;;;;;;9.98;96.43;101525.56;10457204;28;20563;-66
2021/10/04 06:02:02;;;;;;;0.05;0.05;;;;;;;9.95;96.49;101512.53;10450295;28;20041;-66
2021/10/04 06:07:02;;;;;;;0.00;0.00;;;;;;;9.94;96.26;101510.81;10455809;28;20036;-66
2021/10/04 06:12:03;;;;;;;0.10;0.10;;;;;;;9.94;96.29;101523.28;10456465;28;20032;-66
2021/10/04 06:17:03;;;;;;;0.08;0.08;;;;;;;9.94;96.70;101529.44;10456761;28;20464;-66
2021/10/04 06:22:03;;;;;;;0.00;0.00;;;;;;;10.00;96.57;101537.88;10455267;28;20025;-66
2021/10/04 06:27:04;;;;;;;0.00;0.00;;;;;;;10.13;96.33;101551.75;10456521;28;20111;-66
2021/10/04 06:32:05;;;;;;;0.10;0.10;;;;;;;10.33;95.72;101555.31;10451647;28;20025;-66
2021/10/04 06:37:06;;;;;;;0.10;0.10;;;;;;;10.52;95.33;101568.63;10449278;28;20032;-66
2021/10/04 06:42:07;;;;;;;0.10;0.10;;;;;;;10.79;94.44;101573.25;10456236;28;20025;-66
2021/10/04 06:47:08;;;;;;;0.10;0.10;;;;;;;11.09;93.71;101595.34;10451116;28;20078;-66
2021/10/04 06:52:08;;;;;;;0.10;0.10;;;;;;;11.58;92.25;101593.38;10455221;28;20435;-66
2021/10/04 06:57:09;;;;;;;0.10;0.10;;;;;;;12.14;89.83;101595.06;10455151;28;20029;-66
2021/10/04 07:02:09;;;;;;;0.10;0.10;;;;;;;12.94;86.66;101605.81;10453805;28;20035;-66
2021/10/04 07:07:13;;;;;;;0.00;0.00;;;;;;;13.41;85.11;101609.97;10453735;28;20029;-66
2021/10/04 07:12:13;;;;;;;0.10;0.10;;;;;;;13.83;82.35;101615.38;10454590;28;20124;-66
2021/10/04 07:17:14;;;;;;;0.10;0.10;;;;;;;13.73;82.24;101612.00;10511795;22;20144;-67
2021/10/04 07:22:15;;;;;;;0.10;0.10;;;;;;;13.47;82.82;101618.25;10533754;28;20091;-67
2021/10/04 07:27:16;;;;;;;0.10;0.10;;;;;;;13.24;83.66;101633.94;10497050;28;20035;-67
2021/10/04 07:32:17;;;;;;;0.10;0.10;;;;;;;13.01;85.04;101640.81;10494935;28;20025;-68
2021/10/04 07:37:17;;;;;;;0.10;0.10;;;;;;;12.87;85.62;101645.69;10494902;28;20032;-69
2021/10/04 07:42:17;;;;;;;0.10;0.10;;;;;;;12.85;85.24;101652.19;10494306;28;20082;-67
2021/10/04 07:47:18;;;;;;;0.10;0.10;;;;;;;12.85;85.54;101649.50;10494241;28;20750;-67
2021/10/04 07:52:18;;;;;;;0.10;0.10;;;;;;;12.96;85.14;101657.31;10494256;28;20063;-67
2021/10/04 07:57:19;;;;;;;0.10;0.10;;;;;;;13.09;85.29;101660.44;10494091;28;20116;-67
2021/10/04 08:02:19;;;;;;;0.10;0.10;;;;;;;13.26;84.36;101653.38;10494546;28;20020;-67
2021/10/04 08:07:19;;;;;;;0.10;0.10;;;;;;;13.32;84.33;101676.00;10493829;28;20024;-67
2021/10/04 08:12:23;;;;;;;0.10;0.10;;;;;;;13.35;84.61;101681.03;10493154;28;20024;-68
2021/10/04 08:17:24;;;;;;;0.10;0.10;;;;;;;13.29;83.43;101682.53;10466971;28;20032;-65
2021/10/04 08:22:25;;;;;;;0.10;0.10;;;;;;;13.23;84.40;101674.22;10481913;28;20035;-68
2021/10/04 08:27:25;;;;;;;0.10;0.10;;;;;;;13.11;83.97;101679.81;10492790;28;20032;-67
2021/10/04 08:32:25;;;;;;;0.10;0.10;;;;;;;13.04;85.64;101689.47;10492855;28;20023;-67
2021/10/04 08:37:28;;;;;;;0.10;0.10;;;;;;;13.03;85.15;101687.78;10492593;28;20142;-67
2021/10/04 08:42:30;;;;;;;0.10;0.10;;;;;;;13.08;85.71;101690.00;10492683;28;20021;-67
2021/10/04 08:47:36;;;;;;;0.10;0.10;;;;;;;13.13;85.04;101691.22;10493060;28;20112;-67
2021/10/04 08:52:37;;;;;;;0.10;0.10;;;;;;;13.20;85.66;101685.25;10491552;28;20028;-67
2021/10/04 08:57:37;;;;;;;0.10;0.10;;;;;;;13.18;84.29;101676.53;10492172;28;20304;-67
2021/10/04 09:02:37;;;;;;;0.10;0.10;;;;;;;13.13;84.60;101677.84;10491667;28;20070;-67
2021/10/04 09:07:40;;;;;;;0.10;0.10;;;;;;;13.10;84.91;101680.81;10492176;28;20032;-68
2021/10/04 09:12:40;;;;;;;0.10;0.10;;;;;;;13.05;83.84;101691.13;10492233;28;20467;-68
2021/10/04 09:17:40;;;;;;;0.10;0.10;;;;;;;13.04;85.09;101677.94;10492393;28;20115;-69
2021/10/04 09:22:41;;;;;;;0.10;0.10;;;;;;;12.99;84.99;101705.13;10491602;28;20423;-68
2021/10/04 09:27:44;;;;;;;0.00;0.00;;;;;;;13.00;86.12;101698.81;10497309;28;20035;-68
2021/10/04 09:32:50;;;;;;;0.10;0.10;;;;;;;13.05;85.16;101709.84;10498095;28;20048;-67
2021/10/04 09:37:59;;;;;;;0.10;0.10;;;;;;;13.14;84.89;101703.59;10499554;28;20025;-68
2021/10/04 09:43:03;;;;;;;0.10;0.10;;;;;;;13.35;84.91;101705.09;10499370;28;20024;-68
2021/10/04 09:48:08;;;;;;;0.10;0.10;;;;;;;13.66;84.11;101699.31;10498894;28;20111;-69
2021/10/04 09:53:10;;;;;;;0.00;0.00;;;;;;;13.90;84.27;101695.91;10498583;28;20028;-69
2021/10/04 09:58:19;;;;;;;0.10;0.10;;;;;;;14.10;81.87;101702.72;10498793;28;20055;-68
2021/10/04 10:03:25;;;;;;;0.05;0.05;;;;;;;14.25;81.76;101700.25;10498581;28;20024;-69
2021/10/04 10:08:28;;;;;;;0.10;0.10;;;;;;;14.43;81.79;101711.72;10498402;28;20089;-69
2021/10/04 10:13:29;;;;;;;0.10;0.10;;;;;;;14.61;82.17;101697.41;10498311;28;20393;-68
2021/10/04 10:18:43;;;;;;;0.10;0.10;;;;;;;14.69;80.93;101681.34;10497754;28;20058;-68
2021/10/04 10:23:59;;;;;;;0.10;0.10;;;;;;;14.46;79.10;101681.09;10496498;28;20013;-68
2021/10/04 10:29:09;;;;;;;0.10;0.10;;;;;;;14.48;79.90;101690.63;10497438;28;20055;-69
2021/10/04 10:34:09;;;;;;;0.10;0.10;;;;;;;14.58;81.36;101711.97;10496193;28;20024;-69
2021/10/04 10:39:10;;;;;;;0.00;0.00;;;;;;;14.61;80.36;101708.97;10497043;28;20086;-69
2021/10/04 10:44:12;;;;;;;0.10;0.10;;;;;;;14.61;80.28;101710.81;10497231;28;20778;-69
2021/10/04 10:49:51;;;;;;;0.10;0.10;;;;;;;14.65;81.90;101720.19;10491593;28;20029;-69
2021/10/04 10:54:52;;;;;;;0.10;0.10;;;;;;;14.71;79.80;101733.75;10472964;28;20031;-65
2021/10/04 11:00:22;;;;;;;0.10;0.10;;;;;;;14.76;80.81;101719.88;10495266;28;20031;-68
2021/10/04 11:05:34;;;;;;;0.00;0.00;;;;;;;14.80;81.20;101725.75;10494086;28;20089;-67
2021/10/04 11:10:56;;;;;;;0.10;0.10;;;;;;;14.93;81.13;101740.34;10493540;28;20063;-68
2021/10/04 11:15:59;;;;;;;0.10;0.10;;;;;;;14.94;79.76;101735.81;10496697;28;20116;-69
2021/10/04 11:21:05;;;;;;;0.00;0.00;;;;;;;15.07;80.36;101727.31;10521917;28;20039;-66
2021/10/04 11:26:09;;;;;;;0.10;0.10;;;;;;;15.09;77.58;101722.59;10512680;28;20465;-68
2021/10/04 11:31:20;;;;;;;0.10;0.10;;;;;;;15.14;77.48;101717.56;10515035;28;20020;-69
2021/10/04 11:36:27;;;;;;;0.10;0.10;;;;;;;15.15;77.98;101717.41;10536352;28;20052;-69
2021/10/04 11:41:34;;;;;;;0.10;0.10;;;;;;;15.14;78.12;101731.81;10536297;28;20094;-68
2021/10/04 11:46:39;;;;;;;0.10;0.10;;;;;;;15.21;79.61;101723.09;10519419;28;20031;-68
2021/10/04 11:51:46;;;;;;;0.10;0.10;;;;;;;15.28;76.82;101714.22;10535955;28;20028;-67
2021/10/04 11:56:46;;;;;;;0.10;0.10;;;;;;;15.35;77.32;101683.00;10534884;28;20118;-69
2021/10/04 12:01:47;;;;;;;0.10;0.10;;;;;;;15.43;78.01;101694.75;10536275;28;20493;-68
2021/10/04 12:06:48;;;;;;;0.10;0.10;;;;;;;15.49;76.73;101704.81;10536377;28;20028;-68
2021/10/04 12:11:56;;;;;;;0.00;0.00;;;;;;;15.54;76.93;101705.97;10535986;28;20080;-68
2021/10/04 12:17:03;;;;;;;0.00;0.00;;;;;;;15.76;77.65;101687.47;10489450;28;20024;-68
2021/10/04 12:22:03;;;;;;;0.10;0.10;;;;;;;15.91;76.46;101685.78;10452339;28;20031;-66
2021/10/04 12:27:11;;;;;;;0.10;0.10;;;;;;;16.04;75.25;101686.03;10499893;28;20023;-66
2021/10/04 12:32:22;;;;;;;0.10;0.10;;;;;;;15.92;74.39;101679.38;10493212;28;20452;-67
2021/10/04 12:37:28;;;;;;;0.00;0.00;;;;;;;15.79;76.99;101682.59;10481946;28;20503;-67
2021/10/04 12:42:29;;;;;;;0.10;0.10;;;;;;;15.70;76.50;101680.13;10491676;28;20016;-67
2021/10/04 12:47:29;;;;;;;0.10;0.10;;;;;;;15.89;77.59;101689.63;10521203;28;20480;-67
2021/10/04 12:52:31;;;;;;;0.10;0.10;;;;;;;16.07;77.01;101692.91;10534219;28;20024;-67
2021/10/04 12:57:34;;;;;;;0.00;0.00;;;;;;;16.04;73.93;101688.72;10532961;28;20427;-67
2021/10/04 13:02:35;;;;;;;0.10;0.10;;;;;;;16.10;74.15;101678.31;10533344;28;20028;-68
2021/10/04 13:07:35;;;;;;;0.10;0.10;;;;;;;16.24;74.78;101681.09;10534037;28;20115;-68
2021/10/04 13:12:36;;;;;;;0.00;0.00;;;;;;;16.34;73.61;101680.03;10529414;28;20097;-67
2021/10/04 13:17:37;;;;;;;0.10;0.10;;;;;;;16.37;74.03;101685.88;10530342;28;20028;-67
2021/10/04 13:22:37;;;;;;;0.10;0.10;;;;;;;16.42;72.64;101682.69;10530943;28;20020;-66
2021/10/04 13:27:38;;;;;;;0.00;0.00;;;;;;;16.45;73.16;101679.63;10521692;28;20029;-67
2021/10/04 13:32:39;;;;;;;0.10;0.10;;;;;;;16.38;72.25;101676.81;10491412;28;20021;-68
2021/10/04 13:37:39;;;;;;;0.10;0.10;;;;;;;16.36;74.46;101684.22;10491193;28;20498;-68
2021/10/04 13:42:41;;;;;;;0.00;0.00;;;;;;;16.35;72.44;101670.94;10503799;28;20089;-68
2021/10/04 13:47:41;;;;;;;0.00;0.00;;;;;;;16.33;73.96;101667.59;10532557;28;20024;-68
2021/10/04 13:52:42;;;;;;;0.00;0.00;;;;;;;16.24;70.15;101669.50;10532962;28;20465;-68
2021/10/04 13:57:43;;;;;;;0.10;0.10;;;;;;;16.17;71.29;101677.41;10532468;28;20519;-68
2021/10/04 14:02:43;;;;;;;0.10;0.10;;;;;;;16.11;70.26;101674.59;10532800;28;20037;-66
2021/10/04 14:07:44;;;;;;;0.10;0.10;;;;;;;16.10;70.54;101676.44;10532571;28;20032;-66
2021/10/04 14:12:44;;;;;;;0.00;0.00;;;;;;;16.07;71.30;101671.44;10505198;28;20647;-66
2021/10/04 14:17:48;;;;;;;0.00;0.00;;;;;;;16.03;71.64;101675.47;10497719;28;20397;-68
2021/10/04 14:22:48;;;;;;;;;;;;;;;16.00;70.88;101678.53;10497385;28;20028;-68
2021/10/04 14:27:50;;;;;;;0.10;0.10;;;;;;;15.96;71.99;101685.25;10497080;28;20288;-68
2021/10/04 14:32:50;;;;;;;0.10;0.10;;;;;;;15.89;72.05;101686.97;10497401;28;20025;-67
2021/10/04 14:37:52;;;;;;;0.00;0.00;;;;;;;15.76;72.47;101684.78;10496870;28;20503;-69
2021/10/04 14:42:52;;;;;;;0.00;0.00;;;;;;;15.67;70.73;101677.75;10496774;28;20100;-68
2021/10/04 14:47:52;;;;;;;0.00;0.00;;;;;;;15.59;71.74;101670.53;10496722;28;20107;-65
2021/10/04 14:52:53;;;;;;;0.10;0.10;;;;;;;15.51;72.71;101665.22;10496563;28;20028;-65
2021/10/04 14:57:53;;;;;;;0.10;0.10;;;;;;;15.43;72.48;101668.72;10496136;28;20032;-66
2021/10/04 15:02:53;;;;;;;0.10;0.10;;;;;;;15.36;74.00;101665.06;10496125;28;20032;-66
2021/10/04 15:07:54;;;;;;;0.10;0.10;;;;;;;15.31;73.01;101660.19;10495725;28;20047;-67
2021/10/04 15:12:54;;;;;;;0.10;0.10;;;;;;;15.24;73.81;101655.66;10492222;28;20422;-65
2021/10/04 15:17:54;;;;;;;0.00;0.00;;;;;;;15.16;73.93;101656.53;10511804;28;20024;-66
2021/10/04 15:22:55;;;;;;;0.10;0.10;;;;;;;15.09;74.40;101664.41;10503070;28;20024;-65
2021/10/04 15:27:55;;;;;;;0.10;0.10;;;;;;;15.03;76.27;101654.34;10463952;28;20068;-66
2021/10/04 15:32:55;;;;;;;0.10;0.10;;;;;;;14.96;75.94;101663.25;10472435;28;20296;-65
2021/10/04 15:37:56;;;;;;;0.00;0.00;;;;;;;14.93;74.56;101665.25;10466705;28;20037;-65
2021/10/04 15:42:56;;;;;;;0.00;0.00;;;;;;;14.96;75.67;101663.25;10462230;28;20508;-67
2021/10/04 15:47:56;;;;;;;0.10;0.10;;;;;;;14.94;75.72;101676.81;10461528;28;20474;-68
2021/10/04 15:52:57;;;;;;;0.10;0.10;;;;;;;14.85;76.21;101672.44;10475657;28;20039;-67
2021/10/04 15:57:57;;;;;;;0.10;0.10;;;;;;;14.72;76.67;101683.69;10477925;28;20028;-68
2021/10/04 16:02:58;;;;;;;0.10;0.10;;;;;;;14.63;76.36;101684.66;10455424;28;20013;-69
2021/10/04 16:08:03;;;;;;;0.10;0.10;;;;;;;14.50;77.37;101701.19;10470662;28;20255;-67
2021/10/04 16:13:03;;;;;;;0.10;0.10;;;;;;;14.37;78.60;101695.44;10492017;28;20369;-68
2021/10/04 16:18:03;;;;;;;0.00;0.00;;;;;;;14.27;77.58;101703.63;10466493;28;20490;-68
2021/10/04 16:23:04;;;;;;;0.00;0.00;;;;;;;14.15;78.45;101700.41;10469155;28;20386;-67
2021/10/04 16:28:07;;;;;;;0.10;0.10;;;;;;;13.98;79.10;101699.47;10457741;28;20031;-64
2021/10/04 16:33:09;;;;;;;0.10;0.10;;;;;;;13.83;79.87;101698.41;10472690;28;20032;-67
2021/10/04 16:38:09;;;;;;;0.10;0.10;;;;;;;13.66;80.27;101697.47;10474716;28;20032;-67
2021/10/04 16:43:10;;;;;;;0.10;0.10;;;;;;;13.50;81.10;101700.06;10450928;28;20017;-67
2021/10/04 16:48:10;;;;;;;0.10;0.10;;;;;;;13.40;81.22;101697.47;10450949;28;20094;-67
2021/10/04 16:53:11;;;;;;;0.10;0.10;;;;;;;13.23;81.99;101698.31;10490321;28;20055;-66
2021/10/04 16:58:11;;;;;;;0.03;0.03;;;;;;;13.02;82.76;101699.47;10491825;28;20108;-68
2021/10/04 17:03:12;;;;;;;0.10;0.10;;;;;;;12.87;83.90;101715.22;10492363;28;20485;-68
2021/10/04 17:08:12;;;;;;;0.15;0.15;;;;;;;12.73;84.31;101712.22;10491576;28;20473;-68
2021/10/04 17:13:13;;;;;;;0.10;0.10;;;;;;;12.58;84.75;101710.06;10492011;28;20028;-68
2021/10/04 17:18:13;;;;;;;0.10;0.10;;;;;;;12.42;85.20;101715.22;10491964;28;20782;-67
2021/10/04 17:23:13;;;;;;;0.05;0.05;;;;;;;12.34;85.50;101725.84;10491604;28;20017;-67
2021/10/04 17:28:14;;;;;;;0.10;0.10;;;;;;;12.34;85.59;101724.00;10490397;28;20073;-68
2021/10/04 17:33:15;;;;;;;0.10;0.10;;;;;;;12.28;85.95;101732.63;10491302;28;20293;-66
2021/10/04 17:38:15;;;;;;;0.10;0.10;;;;;;;12.19;86.39;101734.34;10486907;28;20021;-66
2021/10/04 17:43:15;;;;;;;0.05;0.05;;;;;;;12.09;86.67;101733.53;10491135;28;20024;-67
2021/10/04 17:48:15;;;;;;;0.10;0.10;;;;;;;11.99;87.08;101733.56;10487531;28;20036;-67
2021/10/04 17:53:18;;;;;;;0.10;0.10;;;;;;;11.95;87.18;101739.34;10499012;28;20104;-68
2021/10/04 17:58:18;;;;;;;0.10;0.10;;;;;;;11.95;87.06;101736.69;10498477;28;20029;-67
2021/10/04 18:03:20;;;;;;;0.10;0.10;;;;;;;11.92;87.26;101727.13;10498664;28;20024;-65
2021/10/04 18:08:20;;;;;;;0.10;0.10;;;;;;;11.89;87.15;101723.91;10498331;28;20028;-68
2021/10/04 18:13:20;;;;;;;0.00;0.00;;;;;;;11.92;86.66;101721.78;10495086;28;20024;-67
2021/10/04 18:18:21;;;;;;;0.10;0.10;;;;;;;11.93;86.59;101730.66;10498547;28;20801;-67
2021/10/04 18:23:21;;;;;;;0.10;0.10;;;;;;;11.87;86.77;101731.22;10499096;28;20309;-68
2021/10/04 18:28:23;;;;;;;0.10;0.10;;;;;;;11.76;87.25;101735.72;10498219;28;20020;-67
2021/10/04 18:33:23;;;;;;;0.10;0.10;;;;;;;11.69;87.47;101739.97;10497202;28;20020;-67
2021/10/04 18:38:23;;;;;;;0.10;0.10;;;;;;;11.63;87.79;101742.34;10497251;28;20024;-66
2021/10/04 18:43:24;;;;;;;0.10;0.10;;;;;;;11.56;88.03;101744.75;10497809;28;20389;-66
2021/10/04 18:48:24;;;;;;;0.10;0.10;;;;;;;11.39;88.49;101742.81;10489479;28;20500;-67
2021/10/04 18:53:26;;;;;;;0.10;0.10;;;;;;;11.20;89.19;101741.84;10495584;28;20504;-66
2021/10/04 18:58:26;;;;;;;0.10;0.10;;;;;;;11.10;89.62;101746.34;10495097;28;20020;-68
2021/10/04 19:03:26;;;;;;;0.10;0.10;;;;;;;11.01;89.68;101737.34;10495717;28;20020;-67
2021/10/04 19:08:27;;;;;;;0.10;0.10;;;;;;;10.95;90.08;101743.25;10496088;28;20025;-67
2021/10/04 19:13:37;;;;;;;0.10;0.10;;;;;;;10.93;90.78;101749.69;10496105;28;20029;-67
2021/10/04 19:18:38;;;;;;;0.08;0.08;;;;;;;10.94;90.38;101746.03;10534238;28;20031;-67
2021/10/04 19:23:38;;;;;;;0.10;0.10;;;;;;;10.91;90.53;101747.19;10539679;28;20031;-67
2021/10/04 19:28:40;;;;;;;0.00;0.00;;;;;;;10.95;90.49;101747.75;10540475;22;20047;-67
2021/10/04 19:33:42;;;;;;;0.08;0.08;;;;;;;10.93;90.16;101741.69;10522829;28;20062;-67
2021/10/04 19:38:44;;;;;;;0.10;0.10;;;;;;;10.91;90.56;101741.84;10492612;28;20099;-67
2021/10/04 19:43:45;;;;;;;0.00;0.00;;;;;;;10.92;90.73;101742.69;10492416;28;20107;-67
2021/10/04 19:48:46;;;;;;;0.10;0.10;;;;;;;10.92;90.43;101732.88;10492089;28;20043;-67
2021/10/04 19:53:53;;;;;;;0.10;0.10;;;;;;;10.86;90.62;101742.25;10491886;28;20028;-66
2021/10/04 19:58:55;;;;;;;0.00;0.00;;;;;;;10.81;90.53;101741.81;10486112;28;20038;-66
2021/10/04 20:03:55;;;;;;;0.10;0.10;;;;;;;10.81;90.94;101736.50;10491321;28;20106;-66
2021/10/04 20:08:55;;;;;;;0.00;0.00;;;;;;;10.84;90.71;101743.38;10490519;28;20104;-67
2021/10/04 20:13:56;;;;;;;0.00;0.00;;;;;;;10.81;90.28;101728.50;10489805;28;20025;-67
2021/10/04 20:18:57;;;;;;;0.10;0.10;;;;;;;10.69;90.83;101728.78;10490264;28;20016;-66
2021/10/04 20:24:03;;;;;;;0.10;0.10;;;;;;;10.60;91.80;101738.44;10491280;28;20111;-66
2021/10/04 20:29:03;;;;;;;0.15;0.15;;;;;;;10.67;91.73;101739.56;10490063;28;20025;-65
2021/10/04 20:34:04;;;;;;;0.10;0.10;;;;;;;10.67;91.28;101747.53;10490546;28;20439;-67
2021/10/04 20:39:04;;;;;;;0.10;0.10;;;;;;;10.60;91.79;101749.91;10490719;28;20062;-67
2021/10/04 20:44:05;;;;;;;0.10;0.10;;;;;;;10.51;91.93;101732.09;10489903;28;20021;-66
2021/10/04 20:49:06;;;;;;;0.00;0.00;;;;;;;10.46;92.50;101739.66;10490079;28;20262;-68
2021/10/04 20:54:08;;;;;;;0.10;0.10;;;;;;;10.53;92.10;101738.16;10490003;28;20048;-67
2021/10/04 20:59:09;;;;;;;0.10;0.10;;;;;;;10.56;91.75;101731.66;10489608;28;20441;-67
2021/10/04 21:04:12;;;;;;;0.10;0.10;;;;;;;10.57;92.01;101730.72;10489618;28;20024;-67
2021/10/04 21:09:12;;;;;;;0.10;0.10;;;;;;;10.53;91.75;101731.94;10487428;28;20477;-67
2021/10/04 21:14:12;;;;;;;0.10;0.10;;;;;;;10.43;92.30;101726.59;10488596;28;20028;-67
2021/10/04 21:19:14;;;;;;;0.10;0.10;;;;;;;10.45;91.94;101729.97;10489119;28;20048;-67
2021/10/04 21:24:14;;;;;;;0.10;0.10;;;;;;;10.48;91.80;101726.22;10495983;28;20021;-68
2021/10/04 21:29:15;;;;;;;0.10;0.10;;;;;;;10.34;91.60;101725.59;10496956;28;20036;-66
2021/10/04 21:34:15;;;;;;;0.00;0.00;;;;;;;10.18;92.22;101727.88;10496905;28;20024;-67
2021/10/04 21:39:16;;;;;;;0.03;0.03;;;;;;;10.02;92.82;101716.91;10477734;28;20087;-67
2021/10/04 21:44:17;;;;;;;0.10;0.10;;;;;;;9.86;93.25;101712.06;10436986;28;20021;-67
2021/10/04 21:49:17;;;;;;;0.00;0.00;;;;;;;9.78;94.31;101711.91;10435190;28;20021;-67
2021/10/04 21:54:18;;;;;;;0.00;0.00;;;;;;;9.74;94.00;101708.63;10411880;28;20051;-68
2021/10/04 21:59:27;;;;;;;0.10;0.10;;;;;;;9.76;95.10;101717.34;10422497;28;20022;-66
2021/10/04 22:14:49;;;;;;;0.00;0.00;;;;;;;9.96;93.83;101713.78;10437922;28;20033;-67
2021/10/04 22:19:49;;;;;;;0.10;0.10;;;;;;;9.90;94.60;101717.00;10438250;28;20017;-67
2021/10/04 22:24:50;;;;;;;0.10;0.10;;;;;;;9.94;94.43;101721.06;10443457;28;20037;-67
2021/10/04 22:29:50;;;;;;;0.10;0.10;;;;;;;9.94;94.28;101717.56;10516544;28;20032;-67
2021/10/04 22:34:51;;;;;;;0.00;0.00;;;;;;;9.96;93.85;101707.63;10534707;28;20035;-67
2021/10/04 22:39:51;;;;;;;0.00;0.00;;;;;;;9.93;94.21;101708.75;10504086;28;20024;-68
2021/10/04 22:44:51;;;;;;;0.00;0.00;;;;;;;9.89;94.31;101707.34;10518998;28;20433;-69
2021/10/04 22:49:52;;;;;;;0.10;0.10;;;;;;;9.82;94.40;101700.84;10534390;28;20032;-69
2021/10/04 22:54:52;;;;;;;0.10;0.10;;;;;;;9.75;94.96;101705.88;10533935;28;20532;-69
2021/10/04 22:59:52;;;;;;;0.10;0.10;;;;;;;9.75;95.16;101715.66;10495128;28;20024;-69
2021/10/04 23:04:52;;;;;;;0.00;0.00;;;;;;;9.72;95.26;101711.44;10529556;28;20066;-67
2021/10/04 23:09:53;;;;;;;0.10;0.10;;;;;;;9.61;95.51;101702.72;10506453;28;20318;-69
2021/10/04 23:14:53;;;;;;;0.00;0.00;;;;;;;9.56;95.55;101697.78;10525529;28;20103;-69
2021/10/04 23:19:53;;;;;;;0.00;0.00;;;;;;;9.47;95.42;101688.75;10489253;28;20486;-69